Time;durP1;ratioP1;P1;durP2;ratioP2;P2;SDS_P1;SDS_P2;PMS_P1;PMS_P2;Temp;Humidity;BMP_temperature;BMP_pressure;BME280_temperature;BME280_humidity;BME280_pressure;Samples;Min_cycle;Max_cycle;Signal;HPM_P1;HPM_P2
2022/05/09 00:01:07;;;;;;;9.83;5.40;;;;;;;13.76;72.78;100046.34;5071271;28;20658;-63
2022/05/09 00:03:34;;;;;;;7.67;6.07;;;;;;;13.74;72.58;100048.03;5071641;28;20187;-61
2022/05/09 00:06:02;;;;;;;9.30;5.97;;;;;;;13.22;73.11;99985.41;5071427;28;20187;-62
2022/05/09 00:08:29;;;;;;;6.53;5.37;;;;;;;13.61;73.70;100047.00;5071078;28;20260;-62
2022/05/09 00:10:56;;;;;;;8.07;5.57;;;;;;;13.51;73.64;100055.50;5071376;28;20193;-62
2022/05/09 00:13:22;;;;;;;7.77;5.83;;;;;;;13.35;74.70;100053.56;5071008;28;20220;-60
2022/05/09 00:15:49;;;;;;;10.10;6.43;;;;;;;13.38;74.72;100051.88;5066523;28;20196;-62
2022/05/09 00:18:19;;;;;;;11.47;7.30;;;;;;;13.40;74.82;100051.91;5068937;28;20198;-60
2022/05/09 00:20:46;;;;;;;9.63;6.17;;;;;;;13.43;74.88;100052.78;5067897;28;20186;-60
2022/05/09 00:23:15;;;;;;;11.27;5.87;;;;;;;13.42;74.88;100057.94;5070828;28;20188;-62
2022/05/09 00:25:41;;;;;;;9.40;6.10;;;;;;;13.40;74.89;100055.34;5070730;28;20201;-60
2022/05/09 00:28:08;;;;;;;10.93;6.30;;;;;;;13.44;75.16;100045.91;5070824;28;20184;-62
2022/05/09 00:30:35;;;;;;;8.93;6.50;;;;;;;13.45;75.25;100053.69;5070380;28;20219;-60
2022/05/09 00:33:02;;;;;;;8.00;6.00;;;;;;;13.48;74.99;100051.16;5070319;28;20185;-63
2022/05/09 00:35:29;;;;;;;8.80;6.17;;;;;;;13.43;75.25;100054.53;5070573;28;20590;-62
2022/05/09 00:37:56;;;;;;;7.73;5.53;;;;;;;13.40;74.96;100057.94;5069883;28;20277;-61
2022/05/09 00:40:24;;;;;;;7.90;5.87;;;;;;;13.39;75.40;100060.47;5069905;28;20192;-63
2022/05/09 00:42:53;;;;;;;9.40;5.27;;;;;;;13.36;75.67;100058.72;5056140;28;20199;-62
2022/05/09 00:45:22;;;;;;;7.53;5.27;;;;;;;13.36;75.36;100058.72;5070918;28;20203;-62
2022/05/09 00:47:49;;;;;;;10.07;5.67;;;;;;;13.33;75.56;100057.81;5056360;28;20555;-62
2022/05/09 00:50:20;;;;;;;8.73;5.23;;;;;;;13.23;75.47;100053.38;5050619;28;20209;-56
2022/05/09 00:52:52;;;;;;;5.85;5.22;;;;;;;13.29;75.72;100054.34;5049689;28;20447;-56
2022/05/09 00:55:23;;;;;;;8.87;4.87;;;;;;;13.31;75.89;100054.34;5059465;28;20219;-56
2022/05/09 00:57:57;;;;;;;6.37;5.00;;;;;;;13.30;76.06;100048.31;5070275;28;20187;-57
2022/05/09 01:00:25;;;;;;;5.43;4.70;;;;;;;13.26;76.06;100049.13;5066694;28;20409;-56
2022/05/09 01:03:00;;;;;;;5.77;5.17;;;;;;;13.28;76.02;100052.59;5050232;28;20712;-56
2022/05/09 01:05:28;;;;;;;6.13;5.40;;;;;;;13.22;76.09;100044.75;5049999;28;20281;-57
2022/05/09 01:07:55;;;;;;;7.67;5.77;;;;;;;13.20;76.04;100049.03;5050436;28;20184;-56
2022/05/09 01:10:26;;;;;;;8.23;6.07;;;;;;;13.19;76.13;100047.28;5050350;28;20199;-57
2022/05/09 01:12:54;;;;;;;8.00;5.10;;;;;;;13.16;76.03;100049.81;5054174;28;20273;-56
2022/05/09 01:15:22;;;;;;;7.37;5.20;;;;;;;13.15;76.87;100050.69;5070066;28;20604;-57
2022/05/09 01:17:50;;;;;;;6.93;5.50;;;;;;;13.08;76.50;100048.84;5070153;28;20677;-56
2022/05/09 01:20:18;;;;;;;7.00;5.10;;;;;;;13.09;76.62;100053.16;5069335;28;20191;-57
2022/05/09 01:22:46;;;;;;;5.63;5.13;;;;;;;13.07;76.95;100053.97;5074447;28;20648;-57
2022/05/09 01:25:15;;;;;;;5.93;5.33;;;;;;;13.07;76.88;100052.28;5074443;28;20196;-56
2022/05/09 01:27:45;;;;;;;7.27;5.10;;;;;;;13.01;77.30;100044.41;5074107;28;20253;-57
2022/05/09 01:30:16;;;;;;;7.57;5.70;;;;;;;13.05;77.32;100053.06;5074379;28;20202;-56
2022/05/09 01:32:46;;;;;;;5.83;5.20;;;;;;;13.02;77.14;100048.72;5073964;28;20187;-56
2022/05/09 01:35:20;;;;;;;10.57;5.90;;;;;;;13.01;77.13;100047.00;5074098;28;20314;-56
2022/05/09 01:37:52;;;;;;;7.30;5.10;;;;;;;13.00;77.44;100045.25;5073832;28;20789;-56
2022/05/09 01:40:19;;;;;;;9.23;5.70;;;;;;;13.00;77.70;100050.41;5074128;28;20601;-56
2022/05/09 01:42:46;;;;;;;7.20;5.73;;;;;;;13.03;77.84;100059.06;5073804;28;20612;-56
2022/05/09 01:45:14;;;;;;;6.83;6.13;;;;;;;13.00;78.25;100055.56;5074081;28;20198;-56
2022/05/09 01:50:25;;;;;;;7.87;6.60;;;;;;;12.98;77.80;100058.13;5074088;28;20282;-62
2022/05/09 01:52:54;;;;;;;7.97;6.73;;;;;;;12.90;78.21;100054.56;5074408;28;20249;-62
2022/05/09 01:55:21;;;;;;;12.20;6.70;;;;;;;12.89;78.45;100051.94;5073653;28;20702;-60
2022/05/09 01:57:49;;;;;;;10.93;6.57;;;;;;;12.85;78.91;100047.59;5074031;28;20191;-62
2022/05/09 02:00:17;;;;;;;8.37;6.27;;;;;;;12.80;78.72;100047.50;5073868;28;20217;-60
2022/05/09 02:02:44;;;;;;;9.40;7.47;;;;;;;12.81;78.91;100041.53;5073750;28;20199;-62
2022/05/09 02:05:12;;;;;;;8.47;7.17;;;;;;;12.80;79.12;100046.66;5073442;28;20196;-62
2022/05/09 02:07:39;;;;;;;10.37;7.07;;;;;;;12.81;79.33;100049.25;5073620;28;20591;-56
2022/05/09 02:10:08;;;;;;;8.27;7.10;;;;;;;12.79;79.07;100055.25;5073155;28;20203;-56
2022/05/09 02:12:34;;;;;;;8.10;7.27;;;;;;;12.76;79.53;100055.19;5073560;28;20542;-56
2022/05/09 02:15:01;;;;;;;12.33;7.80;;;;;;;12.68;79.40;100059.34;5072989;28;20226;-56
2022/05/09 02:17:29;;;;;;;10.00;8.80;;;;;;;12.66;80.21;100059.31;5073045;28;20665;-56
2022/05/09 02:19:56;;;;;;;11.37;8.47;;;;;;;12.56;80.11;100060.00;5073159;28;20204;-56
2022/05/09 02:22:22;;;;;;;10.83;8.13;;;;;;;12.55;80.53;100062.56;5072998;28;20245;-56
2022/05/09 02:24:49;;;;;;;14.57;8.63;;;;;;;12.51;80.46;100060.75;5073254;28;20188;-56
2022/05/09 02:27:18;;;;;;;10.10;8.60;;;;;;;12.53;80.16;100061.66;5072938;28;20191;-56
2022/05/09 02:29:44;;;;;;;10.27;8.03;;;;;;;12.53;80.26;100054.78;5072885;28;20203;-56
2022/05/09 02:32:13;;;;;;;11.83;7.67;;;;;;;12.57;80.20;100066.91;5072892;28;20576;-56
2022/05/09 02:34:40;;;;;;;11.68;9.10;;;;;;;12.55;80.92;100065.13;5072428;28;20854;-55
2022/05/09 02:37:07;;;;;;;10.17;8.37;;;;;;;12.61;80.23;100062.69;5072974;28;20403;-55
2022/05/09 02:39:34;;;;;;;11.40;8.13;;;;;;;12.62;80.30;100066.97;5072534;28;20238;-56
2022/05/09 02:42:01;;;;;;;11.17;7.67;;;;;;;12.69;80.12;100066.25;5072660;28;20678;-56
2022/05/09 02:44:29;;;;;;;10.97;7.50;;;;;;;12.69;79.98;100063.66;5072933;28;20195;-56
2022/05/09 02:46:56;;;;;;;11.80;7.30;;;;;;;12.71;79.40;100064.56;5072696;28;20191;-56
2022/05/09 02:49:23;;;;;;;9.20;6.97;;;;;;;12.71;79.56;100062.84;5072831;28;20195;-56
2022/05/09 02:51:51;;;;;;;10.33;7.27;;;;;;;12.53;79.36;100046.19;5072837;28;20196;-56
2022/05/09 02:54:18;;;;;;;7.93;6.67;;;;;;;12.70;79.27;100073.13;5072341;28;20215;-57
2022/05/09 02:56:45;;;;;;;10.33;7.60;;;;;;;12.66;79.36;100073.94;5072393;28;20198;-57
2022/05/09 02:59:12;;;;;;;8.17;7.37;;;;;;;12.60;79.75;100066.97;5072300;28;20198;-57
2022/05/09 03:01:40;;;;;;;8.03;7.23;;;;;;;12.63;79.63;100079.03;5072407;28;20558;-57
2022/05/09 03:06:51;;;;;;;10.13;6.77;;;;;;;12.63;80.01;100076.44;5072660;28;20175;-62
2022/05/09 03:09:18;;;;;;;10.23;6.67;;;;;;;12.63;79.37;100074.75;5072773;28;20207;-61
2022/05/09 03:11:45;;;;;;;8.07;7.23;;;;;;;12.64;79.34;100080.75;5072481;28;20662;-62
2022/05/09 03:14:11;;;;;;;9.67;6.70;;;;;;;12.62;79.37;100077.28;5072171;28;20223;-63
2022/05/09 03:16:39;;;;;;;7.37;6.67;;;;;;;12.66;79.64;100081.66;5072772;28;20199;-61
2022/05/09 03:19:06;;;;;;;7.03;6.27;;;;;;;12.71;79.85;100085.19;5072648;28;20249;-61
2022/05/09 03:21:33;;;;;;;8.30;7.00;;;;;;;12.71;79.21;100082.59;5072266;28;20252;-63
2022/05/09 03:24:00;;;;;;;8.23;7.07;;;;;;;12.73;79.29;100092.09;5072411;28;20256;-63
2022/05/09 03:26:27;;;;;;;11.33;8.10;;;;;;;12.80;79.26;100088.75;5072021;28;20628;-63
2022/05/09 03:28:54;;;;;;;9.83;7.77;;;;;;;12.80;79.07;100099.09;5072272;28;20195;-63
2022/05/09 03:31:21;;;;;;;14.87;9.07;;;;;;;12.82;79.15;100092.25;5072095;28;20202;-63
2022/05/09 03:33:49;;;;;;;10.13;7.90;;;;;;;12.87;79.25;100094.91;5072115;28;20195;-61
2022/05/09 03:36:16;;;;;;;11.48;9.07;;;;;;;12.94;79.28;100087.28;5071051;28;20450;-61
2022/05/09 03:38:43;;;;;;;13.17;9.13;;;;;;;13.05;78.40;100096.94;5071988;28;20279;-61
2022/05/09 03:41:09;;;;;;;9.70;8.23;;;;;;;13.06;77.85;100099.53;5072067;28;20578;-61
2022/05/09 03:43:36;;;;;;;11.43;8.50;;;;;;;13.05;77.78;100095.19;5071069;28;20197;-63
2022/05/09 03:46:04;;;;;;;13.63;8.20;;;;;;;13.08;77.75;100110.75;5064759;28;20195;-62
2022/05/09 03:48:30;;;;;;;9.37;8.13;;;;;;;13.08;77.22;100095.28;5068901;28;20184;-63
2022/05/09 03:51:01;;;;;;;16.00;8.80;;;;;;;13.12;77.34;100101.38;5071653;28;20199;-63
2022/05/09 03:53:28;;;;;;;13.37;8.73;;;;;;;13.18;76.87;100104.03;5070807;28;20188;-63
2022/05/09 03:55:55;;;;;;;10.68;9.30;;;;;;;13.24;76.82;100102.41;5071084;28;20456;-61
2022/05/09 03:58:22;;;;;;;10.37;9.00;;;;;;;13.32;75.42;100110.28;5071266;28;20199;-62
2022/05/09 04:00:49;;;;;;;10.13;8.70;;;;;;;13.18;75.37;100111.78;5069952;28;20204;-62
2022/05/09 04:03:16;;;;;;;47.33;11.67;;;;;;;13.29;75.62;100102.50;5065147;28;20199;-61
2022/05/09 04:05:43;;;;;;;10.40;8.33;;;;;;;13.35;75.29;100111.19;5051329;28;20558;-62
2022/05/09 04:08:16;;;;;;;14.17;7.83;;;;;;;13.30;75.11;100114.53;5070237;28;20257;-62
2022/05/09 04:10:43;;;;;;;13.30;9.07;;;;;;;13.19;75.56;100108.34;5071365;28;20195;-62
2022/05/09 04:13:10;;;;;;;18.37;9.20;;;;;;;12.90;76.64;100116.47;5071315;28;20631;-63
2022/05/09 04:18:24;;;;;;;16.87;10.03;;;;;;;12.95;77.01;100116.53;5071051;28;20186;-62
2022/05/09 04:20:51;;;;;;;21.20;10.50;;;;;;;12.83;78.05;100121.47;5071292;28;20199;-62
2022/05/09 04:23:21;;;;;;;20.67;11.17;;;;;;;12.86;77.91;100111.22;5071239;28;20579;-62
2022/05/09 04:25:48;;;;;;;20.03;10.87;;;;;;;12.84;78.38;100118.06;5070897;28;20192;-62
2022/05/09 04:28:18;;;;;;;16.97;9.30;;;;;;;12.84;77.76;100120.66;5071070;28;20195;-62
2022/05/09 04:30:44;;;;;;;17.70;9.97;;;;;;;12.75;78.03;100089.53;5070803;28;20279;-62
2022/05/09 04:33:12;;;;;;;19.57;10.73;;;;;;;12.94;77.70;100122.53;5070847;28;20192;-62
2022/05/09 04:35:39;;;;;;;27.33;11.73;;;;;;;12.95;77.54;100117.41;5070646;28;20717;-57
2022/05/09 04:38:07;;;;;;;19.27;10.60;;;;;;;12.91;77.81;100127.66;5070484;28;20322;-59
2022/05/09 04:40:37;;;;;;;9.47;7.83;;;;;;;13.02;77.24;100124.38;5070470;28;20206;-57
2022/05/09 04:43:05;;;;;;;13.40;9.47;;;;;;;13.10;77.09;100114.25;5070487;28;20662;-57
2022/05/09 04:45:34;;;;;;;13.17;9.40;;;;;;;13.22;76.29;100124.75;5070557;28;20200;-56
2022/05/09 04:48:01;;;;;;;12.80;9.87;;;;;;;13.31;76.09;100130.06;5070297;28;20188;-56
2022/05/09 04:50:29;;;;;;;14.60;10.00;;;;;;;13.48;75.59;100122.56;5070511;28;20203;-57
2022/05/09 04:52:56;;;;;;;12.07;9.10;;;;;;;13.63;74.71;100122.78;5070154;28;20195;-57
2022/05/09 04:55:23;;;;;;;14.17;9.03;;;;;;;13.66;73.84;100122.81;5069671;28;20245;-57
2022/05/09 04:57:52;;;;;;;16.43;10.50;;;;;;;13.53;74.06;100095.09;5070195;28;20199;-56
2022/05/09 05:00:22;;;;;;;16.47;9.70;;;;;;;13.77;73.69;100121.25;5070261;28;20622;-56
2022/05/09 05:02:49;;;;;;;18.97;10.30;;;;;;;13.88;73.22;100121.38;5070037;28;20192;-56
2022/05/09 05:05:16;;;;;;;19.27;10.80;;;;;;;13.85;72.88;100122.22;5070093;28;20188;-56
2022/05/09 05:07:43;;;;;;;19.23;10.97;;;;;;;13.73;73.55;100127.25;5069324;28;20562;-58
2022/05/09 05:10:12;;;;;;;21.57;11.13;;;;;;;13.54;73.75;100102.84;5070108;28;20274;-57
2022/05/09 05:12:39;;;;;;;22.80;12.03;;;;;;;13.53;74.12;100129.53;5069911;28;20204;-57
2022/05/09 05:15:09;;;;;;;17.83;11.57;;;;;;;13.58;74.50;100121.84;5068102;28;20212;-57
2022/05/09 05:17:37;;;;;;;17.77;12.03;;;;;;;13.52;74.57;100125.22;5070429;28;20202;-57
2022/05/09 05:20:05;;;;;;;15.63;11.20;;;;;;;13.43;75.09;100126.81;5070074;28;20978;-57
2022/05/09 05:22:37;;;;;;;14.53;12.13;;;;;;;13.60;74.13;100121.03;5068731;28;20205;-57
2022/05/09 05:25:04;;;;;;;15.20;12.23;;;;;;;13.74;73.86;100125.50;5069781;28;20275;-57
2022/05/09 05:27:31;;;;;;;14.70;11.93;;;;;;;14.01;71.88;100124.13;5069609;28;20569;-57
2022/05/09 05:29:59;;;;;;;16.80;12.03;;;;;;;14.22;70.69;100123.56;5070152;28;20214;-57
2022/05/09 05:32:31;;;;;;;18.33;12.17;;;;;;;14.37;69.90;100126.31;5069621;28;20286;-57
2022/05/09 05:34:58;;;;;;;13.80;11.83;;;;;;;14.50;69.55;100112.66;5069681;28;20602;-57
2022/05/09 05:37:25;;;;;;;14.60;10.90;;;;;;;14.35;69.13;100124.56;5069490;28;20191;-57
2022/05/09 05:39:52;;;;;;;18.30;11.70;;;;;;;14.47;68.93;100127.31;5069543;28;20672;-57
2022/05/09 05:42:20;;;;;;;14.50;10.87;;;;;;;14.37;68.74;100121.16;5069362;28;20228;-57
2022/05/09 05:44:49;;;;;;;16.70;11.47;;;;;;;14.38;68.90;100122.91;5069608;28;20204;-57
2022/05/09 05:47:19;;;;;;;11.60;10.40;;;;;;;14.37;68.35;100117.69;5069230;28;20238;-61
2022/05/09 05:49:47;;;;;;;12.63;10.43;;;;;;;14.36;68.14;100127.19;5069754;28;20274;-62
2022/05/09 05:52:14;;;;;;;12.53;9.80;;;;;;;14.61;67.86;100121.41;5069629;28;20565;-63
2022/05/09 05:54:45;;;;;;;13.47;10.40;;;;;;;14.85;67.11;100130.25;5069534;28;20209;-63
2022/05/09 05:57:21;;;;;;;16.80;10.33;;;;;;;14.90;66.31;100126.88;5070006;28;20190;-62
2022/05/09 05:59:49;;;;;;;10.40;9.10;;;;;;;15.03;66.39;100135.59;5069606;28;20193;-61
2022/05/09 06:02:16;;;;;;;13.67;10.33;;;;;;;15.01;66.02;100127.81;5069393;28;20658;-62
2022/05/09 06:04:43;;;;;;;13.63;9.40;;;;;;;15.16;65.49;100132.28;5069585;28;20208;-62
2022/05/09 06:07:12;;;;;;;13.10;10.33;;;;;;;15.19;65.25;100129.72;5070300;28;20233;-62
2022/05/09 06:09:40;;;;;;;11.50;9.40;;;;;;;15.26;64.80;100132.34;5073040;28;20301;-62
2022/05/09 06:12:07;;;;;;;13.10;9.33;;;;;;;15.40;64.00;100135.03;5073204;28;20207;-63
2022/05/09 06:14:34;;;;;;;13.70;9.77;;;;;;;15.41;64.02;100134.16;5072834;28;20633;-57
2022/05/09 06:17:02;;;;;;;13.35;10.90;;;;;;;15.62;63.81;100133.50;5071821;28;20449;-57
2022/05/09 06:19:29;;;;;;;10.83;9.73;;;;;;;15.80;62.40;100131.00;5072793;28;20219;-57
2022/05/09 06:21:56;;;;;;;14.50;10.60;;;;;;;15.78;62.71;100132.72;5072610;28;20191;-57
2022/05/09 06:24:24;;;;;;;13.40;10.80;;;;;;;15.70;62.95;100131.81;5072714;28;20554;-57
2022/05/09 06:26:51;;;;;;;14.87;10.90;;;;;;;15.69;63.30;100128.34;5073059;28;20187;-57
2022/05/09 06:29:18;;;;;;;12.30;10.80;;;;;;;15.89;63.19;100128.47;5072938;28;20288;-56
2022/05/09 06:31:45;;;;;;;12.73;11.20;;;;;;;16.09;62.59;100126.84;5072591;28;20196;-56
2022/05/09 06:34:13;;;;;;;12.97;11.27;;;;;;;16.18;62.58;100126.84;5072708;28;20199;-56
2022/05/09 06:36:41;;;;;;;14.33;10.10;;;;;;;16.30;61.76;100134.69;5072741;28;20238;-56
2022/05/09 06:39:10;;;;;;;12.37;10.53;;;;;;;16.41;61.47;100129.53;5072537;28;20608;-56
2022/05/09 06:41:38;;;;;;;12.70;11.33;;;;;;;16.57;61.08;100135.63;5072741;28;20314;-56
2022/05/09 06:44:05;;;;;;;14.43;12.17;;;;;;;16.58;61.04;100116.63;5072748;28;20206;-56
2022/05/09 06:46:33;;;;;;;16.37;11.80;;;;;;;16.81;60.51;100128.75;5072545;28;20585;-57
2022/05/09 06:49:00;;;;;;;15.83;11.60;;;;;;;16.86;60.30;100119.28;5072437;28;20191;-56
2022/05/09 06:51:27;;;;;;;15.80;12.53;;;;;;;16.99;60.28;100123.59;5072706;28;20563;-57
2022/05/09 06:53:54;;;;;;;15.43;10.70;;;;;;;17.08;59.17;100120.97;5072266;28;20245;-57
2022/05/09 06:56:21;;;;;;;13.93;10.20;;;;;;;17.06;58.93;100119.25;5072218;28;20732;-57
2022/05/09 06:58:49;;;;;;;14.43;11.30;;;;;;;17.09;58.77;100120.13;5072163;28;20192;-57
2022/05/09 07:01:19;;;;;;;13.97;9.53;;;;;;;17.09;58.48;100116.66;5071314;28;20256;-57
2022/05/09 07:03:47;;;;;;;10.47;9.47;;;;;;;17.11;58.01;100123.59;5069438;28;20666;-57
2022/05/09 07:06:16;;;;;;;10.47;9.40;;;;;;;17.10;58.07;100119.28;5061980;28;20672;-57
2022/05/09 07:08:43;;;;;;;12.37;9.10;;;;;;;17.13;57.77;100118.41;5070104;28;20328;-57
2022/05/09 07:11:11;;;;;;;12.40;9.93;;;;;;;17.19;57.47;100107.16;5065984;28;20217;-57
2022/05/09 07:13:38;;;;;;;13.80;9.97;;;;;;;17.22;57.53;100114.94;5070829;28;20195;-56
2022/05/09 07:16:08;;;;;;;10.47;9.13;;;;;;;17.26;56.91;100114.06;5068508;28;20261;-56
2022/05/09 07:18:36;;;;;;;13.50;9.27;;;;;;;17.33;56.23;100116.66;5070321;28;20188;-56
2022/05/09 07:21:03;;;;;;;10.17;7.87;;;;;;;17.33;55.41;100116.66;5067809;28;20180;-57
2022/05/09 07:23:30;;;;;;;9.60;7.80;;;;;;;17.41;55.13;100114.06;5071281;28;20190;-56
2022/05/09 07:25:57;;;;;;;11.30;8.37;;;;;;;17.56;55.67;100104.53;5071336;28;20192;-57
2022/05/09 07:28:27;;;;;;;12.10;7.73;;;;;;;17.66;54.37;100108.00;5067368;28;20529;-57
2022/05/09 07:30:55;;;;;;;11.30;8.43;;;;;;;17.57;54.66;100108.88;5068938;28;20662;-56
2022/05/09 07:33:23;;;;;;;9.67;7.17;;;;;;;17.58;54.57;100101.91;5071017;28;20196;-57
2022/05/09 07:35:50;;;;;;;13.32;9.10;;;;;;;17.75;55.04;100105.34;5070268;28;20915;-57
2022/05/09 07:38:17;;;;;;;13.03;9.20;;;;;;;18.05;54.54;100109.56;5066139;28;20223;-57
2022/05/09 07:40:46;;;;;;;11.27;10.17;;;;;;;18.25;54.03;100105.13;5069237;28;20553;-56
2022/05/09 07:43:17;;;;;;;16.80;10.93;;;;;;;18.14;54.51;100102.59;5070743;28;20961;-57
2022/05/09 07:45:45;;;;;;;12.30;10.30;;;;;;;18.20;54.66;100089.56;5071356;28;20253;-57
2022/05/09 07:48:12;;;;;;;14.73;10.43;;;;;;;17.88;55.19;100096.63;5071020;28;20191;-57
2022/05/09 07:50:41;;;;;;;13.77;9.80;;;;;;;17.81;55.62;100102.72;5070139;28;20203;-56
2022/05/09 07:53:10;;;;;;;15.73;10.53;;;;;;;17.86;55.68;100100.97;5071070;28;20265;-56
2022/05/09 07:55:37;;;;;;;14.13;10.03;;;;;;;17.80;56.02;100100.16;5070925;28;20222;-56
2022/05/09 07:58:04;;;;;;;16.03;11.60;;;;;;;17.87;55.48;100096.66;5069524;28;20434;-57
2022/05/09 08:00:31;;;;;;;11.17;9.97;;;;;;;17.60;56.03;100101.06;5071025;28;20444;-57
2022/05/09 08:02:58;;;;;;;11.30;9.40;;;;;;;17.46;56.02;100094.13;5071113;28;20191;-57
2022/05/09 08:05:25;;;;;;;19.73;9.83;;;;;;;17.67;55.96;100091.50;5070757;28;20678;-57
2022/05/09 08:07:53;;;;;;;14.40;8.80;;;;;;;17.81;55.38;100089.72;5070868;28;20206;-57
2022/05/09 08:10:21;;;;;;;14.03;9.67;;;;;;;18.02;54.88;100094.84;5070798;28;20191;-57
2022/05/09 08:12:49;;;;;;;15.50;9.67;;;;;;;18.25;54.27;100094.75;5070865;28;20636;-57
2022/05/09 08:15:19;;;;;;;13.37;9.77;;;;;;;18.46;53.94;100094.59;5070342;28;20321;-57
2022/05/09 08:17:49;;;;;;;13.63;9.73;;;;;;;18.74;52.89;100091.00;5065741;28;20963;-57
2022/05/09 08:20:16;;;;;;;13.57;8.90;;;;;;;18.82;51.98;100094.41;5068659;28;20188;-62
2022/05/09 08:22:45;;;;;;;10.03;8.53;;;;;;;18.80;52.86;100093.56;5070184;28;20574;-62
2022/05/09 08:25:16;;;;;;;17.73;11.27;;;;;;;18.80;54.40;100084.88;5070390;28;20203;-63
2022/05/09 08:27:42;;;;;;;16.50;10.63;;;;;;;18.89;53.98;100084.81;5070317;28;20198;-63
2022/05/09 08:30:12;;;;;;;18.23;11.83;;;;;;;18.57;54.43;100097.19;5069869;28;20196;-63
2022/05/09 08:32:39;;;;;;;14.53;11.40;;;;;;;18.35;55.94;100095.56;5070168;28;20249;-63
2022/05/09 08:35:08;;;;;;;16.10;11.23;;;;;;;18.36;54.87;100061.72;5070071;28;20187;-63
2022/05/09 08:37:35;;;;;;;17.53;10.87;;;;;;;18.54;54.45;100095.44;5066974;28;20551;-56
2022/05/09 08:40:02;;;;;;;15.53;10.30;;;;;;;18.60;54.65;100089.34;5070052;28;20221;-57
2022/05/09 08:42:41;;;;;;;15.43;10.47;;;;;;;18.92;54.49;100090.00;5067668;28;20670;-57
2022/05/09 08:45:33;;;;;;;19.07;10.17;;;;;;;19.07;53.53;100096.81;5068414;28;20196;-56
2022/05/09 08:48:35;;;;;;;16.93;10.23;;;;;;;18.97;53.91;100095.16;5048931;28;20206;-57
2022/05/09 08:51:15;;;;;;;14.97;9.90;;;;;;;18.90;54.49;100094.34;5050324;28;20207;-57
2022/05/09 08:53:45;;;;;;;13.73;9.17;;;;;;;19.24;53.89;100095.78;5050009;28;20649;-57
2022/05/09 08:56:16;;;;;;;15.55;10.18;;;;;;;19.51;53.41;100089.47;5049503;28;20941;-57
2022/05/09 08:58:51;;;;;;;20.10;10.23;;;;;;;19.76;52.51;100088.31;5049893;28;20192;-57
2022/05/09 09:01:20;;;;;;;11.57;8.67;;;;;;;19.48;54.10;100099.06;5050138;28;20196;-58
2022/05/09 09:03:55;;;;;;;16.27;9.33;;;;;;;19.43;54.26;100091.28;5049668;28;20575;-57
2022/05/09 09:06:37;;;;;;;14.63;8.83;;;;;;;19.58;54.43;100093.75;5050859;28;20196;-56
2022/05/09 09:09:18;;;;;;;14.30;9.60;;;;;;;19.47;52.69;100086.91;5068890;28;20723;-57
2022/05/09 09:11:52;;;;;;;16.57;9.87;;;;;;;19.70;52.32;100080.56;5069738;28;20195;-56
2022/05/09 09:14:32;;;;;;;9.17;7.83;;;;;;;19.91;52.66;100088.13;5069765;28;20192;-57
2022/05/09 09:17:11;;;;;;;9.83;7.90;;;;;;;19.94;52.51;100084.66;5070028;28;20199;-57
2022/05/09 09:19:57;;;;;;;10.10;8.23;;;;;;;19.99;53.33;100080.22;5069751;28;20202;-57
2022/05/09 09:22:50;;;;;;;13.67;8.90;;;;;;;19.95;52.15;100081.13;5069711;28;20203;-57
2022/05/09 09:25:42;;;;;;;15.37;8.83;;;;;;;19.82;52.54;100082.19;5069757;28;20203;-57
2022/05/09 09:28:13;;;;;;;9.87;8.53;;;;;;;19.76;53.00;100067.47;5067371;28;20198;-57
2022/05/09 09:30:42;;;;;;;10.03;8.67;;;;;;;19.99;52.76;100081.09;5067014;28;20199;-56
2022/05/09 09:33:12;;;;;;;14.20;8.90;;;;;;;20.27;52.05;100073.78;5068978;28;20188;-57
2022/05/09 09:35:48;;;;;;;10.13;7.83;;;;;;;20.38;51.28;100066.66;5069052;28;20273;-56
2022/05/09 09:38:24;;;;;;;8.67;7.83;;;;;;;20.49;50.51;100059.53;5068870;28;20211;-56
2022/05/09 09:40:51;;;;;;;13.30;7.87;;;;;;;20.77;50.21;100064.34;5069442;28;20198;-57
2022/05/09 09:43:18;;;;;;;11.07;8.15;;;;;;;20.86;49.99;100059.84;5072772;28;20505;-57
2022/05/09 09:46:01;;;;;;;8.93;7.57;;;;;;;21.11;50.10;100065.56;5075164;28;20637;-57
2022/05/09 09:48:30;;;;;;;10.47;7.40;;;;;;;21.33;49.66;100052.94;5073595;28;20201;-57
2022/05/09 09:51:03;;;;;;;8.53;7.60;;;;;;;21.47;49.29;100058.78;5073308;28;20612;-57
2022/05/09 09:53:32;;;;;;;11.07;7.30;;;;;;;21.58;49.39;100047.25;5056956;28;20662;-57
2022/05/09 09:56:02;;;;;;;8.13;7.17;;;;;;;21.67;48.03;100049.66;5052816;28;20274;-57
2022/05/09 09:58:30;;;;;;;10.93;6.93;;;;;;;21.80;48.84;100050.28;5052791;28;20188;-57
2022/05/09 10:01:06;;;;;;;9.67;6.93;;;;;;;21.93;47.52;100045.69;5060806;28;20222;-57
2022/05/09 10:03:34;;;;;;;9.15;7.20;;;;;;;21.97;47.03;100044.75;5071555;28;20440;-57
2022/05/09 10:06:02;;;;;;;12.73;7.33;;;;;;;22.08;47.07;100053.22;5071718;28;20532;-57
2022/05/09 10:08:33;;;;;;;8.60;7.10;;;;;;;22.28;46.72;100049.25;5072443;28;20278;-58
2022/05/09 10:11:07;;;;;;;12.63;8.00;;;;;;;22.48;46.26;100054.06;5072449;28;20442;-57
2022/05/09 10:13:36;;;;;;;9.43;6.60;;;;;;;22.29;45.17;100044.88;5072280;28;20330;-62
2022/05/09 10:16:08;;;;;;;7.60;6.80;;;;;;;22.31;45.48;100040.47;5072480;28;20419;-62
2022/05/09 10:18:35;;;;;;;8.00;7.20;;;;;;;22.32;46.04;100042.22;5072042;28;20192;-62
2022/05/09 10:21:14;;;;;;;10.47;7.63;;;;;;;22.39;44.58;100043.78;5072302;28;20202;-63
2022/05/09 10:26:35;;;;;;;7.20;6.53;;;;;;;22.26;44.12;100043.22;5072386;28;20272;-62
2022/05/09 10:29:07;;;;;;;14.10;7.40;;;;;;;22.41;44.26;100036.78;5072368;28;20630;-63
2022/05/09 10:31:43;;;;;;;8.67;7.20;;;;;;;22.05;45.58;100038.44;5072504;28;20217;-63
2022/05/09 10:34:15;;;;;;;10.75;7.70;;;;;;;22.42;45.13;100038.47;5071626;28;20441;-63
2022/05/09 10:36:47;;;;;;;10.63;7.07;;;;;;;22.73;44.35;100036.03;5072306;28;20199;-64
2022/05/09 10:39:18;;;;;;;9.40;6.60;;;;;;;22.74;43.96;100033.34;5071500;28;20219;-64
2022/05/09 10:41:50;;;;;;;7.90;7.07;;;;;;;22.64;42.80;100031.88;5071921;28;20192;-62
2022/05/09 10:44:27;;;;;;;8.50;7.57;;;;;;;22.63;43.37;100030.16;5072241;28;20214;-64
2022/05/09 10:47:00;;;;;;;10.27;7.10;;;;;;;22.83;43.14;100033.13;5070690;28;20267;-63
2022/05/09 10:49:35;;;;;;;8.37;6.93;;;;;;;22.90;42.90;100026.84;5071230;28;20261;-64
2022/05/09 10:52:18;;;;;;;8.30;6.30;;;;;;;22.59;42.16;100027.59;5072162;28;20187;-63
2022/05/09 10:54:50;;;;;;;8.33;6.57;;;;;;;22.70;42.34;100023.00;5069657;28;20195;-63
2022/05/09 10:57:31;;;;;;;7.93;5.10;;;;;;;22.68;39.83;100020.44;5071650;28;20296;-62
2022/05/09 11:00:05;;;;;;;6.27;5.70;;;;;;;22.80;40.13;100024.47;5071761;28;20200;-63
2022/05/09 11:02:37;;;;;;;5.80;5.30;;;;;;;22.59;41.00;99993.53;5072022;28;20256;-63
2022/05/09 11:05:05;;;;;;;6.13;5.53;;;;;;;22.86;40.74;100019.09;5071692;28;20229;-63
2022/05/09 11:07:39;;;;;;;7.50;5.40;;;;;;;23.02;40.28;100014.34;5071128;28;20188;-64
2022/05/09 11:10:29;;;;;;;8.37;5.50;;;;;;;23.22;38.94;100017.28;5071006;28;20187;-64
2022/05/09 11:13:09;;;;;;;7.43;5.33;;;;;;;23.00;39.05;100014.38;5071270;28;20624;-64
2022/05/09 11:15:44;;;;;;;5.80;5.20;;;;;;;22.94;40.40;100019.75;5070921;28;20202;-63
2022/05/09 11:18:25;;;;;;;7.60;5.40;;;;;;;23.12;40.47;100000.94;5071162;28;20218;-63
2022/05/09 11:21:00;;;;;;;10.97;5.50;;;;;;;23.27;40.55;100004.91;5070400;28;20195;-63
2022/05/09 11:23:35;;;;;;;5.97;5.03;;;;;;;23.41;40.53;100005.41;5071206;28;20198;-64
2022/05/09 11:26:19;;;;;;;5.23;4.73;;;;;;;23.30;40.29;99996.94;5070943;28;20199;-63
2022/05/09 11:29:11;;;;;;;8.33;5.37;;;;;;;23.41;40.71;100003.66;5071165;28;20257;-58
2022/05/09 11:32:04;;;;;;;8.40;5.70;;;;;;;23.50;40.70;100002.53;5070559;28;20192;-58
2022/05/09 11:34:58;;;;;;;5.40;4.77;;;;;;;23.55;40.09;99990.16;5067696;28;20195;-58
2022/05/09 11:37:35;;;;;;;6.20;4.67;;;;;;;23.68;40.01;99990.69;5070678;28;20801;-58
2022/05/09 11:40:10;;;;;;;5.97;4.50;;;;;;;23.93;40.20;99989.03;5070702;28;20198;-58
2022/05/09 11:45:49;;;;;;;5.77;3.90;;;;;;;24.24;38.06;99986.34;5070653;28;20195;-58